sensor_id;sensor_type;location;lat;lon;timestamp;P1;durP1;ratioP1;P2;durP2;ratioP2
2944;SDS011;1482;51.398;7.128;2023-02-01T00:01:54;16.97;;;10.70;;
2944;SDS011;1482;51.398;7.128;2023-02-01T00:04:19;26.80;;;10.43;;
2944;SDS011;1482;51.398;7.128;2023-02-01T00:06:45;21.90;;;8.87;;
2944;SDS011;1482;51.398;7.128;2023-02-01T00:09:11;15.40;;;8.27;;
2944;SDS011;1482;51.398;7.128;2023-02-01T00:11:36;23.23;;;9.47;;
2944;SDS011;1482;51.398;7.128;2023-02-01T00:14:02;17.57;;;8.27;;
2944;SDS011;1482;51.398;7.128;2023-02-01T00:16:28;29.97;;;8.80;;
2944;SDS011;1482;51.398;7.128;2023-02-01T00:18:59;37.80;;;8.47;;
2944;SDS011;1482;51.398;7.128;2023-02-01T00:21:36;23.10;;;7.13;;
2944;SDS011;1482;51.398;7.128;2023-02-01T00:24:02;15.63;;;6.60;;
2944;SDS011;1482;51.398;7.128;2023-02-01T00:26:35;13.43;;;5.40;;
2944;SDS011;1482;51.398;7.128;2023-02-01T00:29:03;17.90;;;5.70;;
2944;SDS011;1482;51.398;7.128;2023-02-01T00:31:30;43.73;;;6.43;;
2944;SDS011;1482;51.398;7.128;2023-02-01T00:33:56;18.57;;;6.27;;
2944;SDS011;1482;51.398;7.128;2023-02-01T00:36:22;15.13;;;6.87;;
2944;SDS011;1482;51.398;7.128;2023-02-01T00:38:47;19.83;;;6.43;;
2944;SDS011;1482;51.398;7.128;2023-02-01T00:41:14;20.03;;;6.57;;
2944;SDS011;1482;51.398;7.128;2023-02-01T00:43:44;11.53;;;5.60;;
2944;SDS011;1482;51.398;7.128;2023-02-01T00:46:11;18.40;;;5.00;;
2944;SDS011;1482;51.398;7.128;2023-02-01T00:48:38;15.53;;;5.70;;
2944;SDS011;1482;51.398;7.128;2023-02-01T00:51:05;14.03;;;5.90;;
2944;SDS011;1482;51.398;7.128;2023-02-01T00:53:32;16.40;;;5.33;;
2944;SDS011;1482;51.398;7.128;2023-02-01T00:55:58;14.03;;;6.33;;
2944;SDS011;1482;51.398;7.128;2023-02-01T00:58:24;18.93;;;5.50;;
2944;SDS011;1482;51.398;7.128;2023-02-01T01:01:00;25.33;;;5.90;;
2944;SDS011;1482;51.398;7.128;2023-02-01T01:03:29;19.70;;;5.77;;
2944;SDS011;1482;51.398;7.128;2023-02-01T01:05:58;9.63;;;5.83;;
2944;SDS011;1482;51.398;7.128;2023-02-01T01:08:25;15.07;;;7.00;;
2944;SDS011;1482;51.398;7.128;2023-02-01T01:10:51;18.60;;;6.33;;
2944;SDS011;1482;51.398;7.128;2023-02-01T01:13:17;15.60;;;6.80;;
2944;SDS011;1482;51.398;7.128;2023-02-01T01:15:42;12.70;;;6.27;;
2944;SDS011;1482;51.398;7.128;2023-02-01T01:18:08;24.83;;;7.53;;
2944;SDS011;1482;51.398;7.128;2023-02-01T01:20:34;13.60;;;7.23;;
2944;SDS011;1482;51.398;7.128;2023-02-01T01:23:02;17.27;;;8.07;;
2944;SDS011;1482;51.398;7.128;2023-02-01T01:25:27;21.70;;;8.90;;
2944;SDS011;1482;51.398;7.128;2023-02-01T01:27:53;18.30;;;9.30;;
2944;SDS011;1482;51.398;7.128;2023-02-01T01:30:19;20.17;;;8.53;;
2944;SDS011;1482;51.398;7.128;2023-02-01T01:32:45;16.30;;;9.23;;
2944;SDS011;1482;51.398;7.128;2023-02-01T01:35:10;20.60;;;9.00;;
2944;SDS011;1482;51.398;7.128;2023-02-01T01:37:36;23.63;;;8.67;;
2944;SDS011;1482;51.398;7.128;2023-02-01T01:40:05;15.70;;;8.17;;
2944;SDS011;1482;51.398;7.128;2023-02-01T01:42:38;14.23;;;7.27;;
2944;SDS011;1482;51.398;7.128;2023-02-01T01:45:06;16.80;;;7.60;;
2944;SDS011;1482;51.398;7.128;2023-02-01T01:47:37;15.97;;;6.90;;
2944;SDS011;1482;51.398;7.128;2023-02-01T01:50:10;11.20;;;7.13;;
2944;SDS011;1482;51.398;7.128;2023-02-01T01:52:41;18.53;;;8.10;;
2944;SDS011;1482;51.398;7.128;2023-02-01T01:55:11;25.80;;;7.33;;
2944;SDS011;1482;51.398;7.128;2023-02-01T01:57:39;14.00;;;7.23;;
2944;SDS011;1482;51.398;7.128;2023-02-01T02:00:12;14.83;;;6.60;;
2944;SDS011;1482;51.398;7.128;2023-02-01T02:02:41;19.53;;;6.90;;
2944;SDS011;1482;51.398;7.128;2023-02-01T02:05:09;15.97;;;6.70;;
2944;SDS011;1482;51.398;7.128;2023-02-01T02:07:37;11.70;;;7.17;;
2944;SDS011;1482;51.398;7.128;2023-02-01T02:10:06;25.40;;;7.20;;
2944;SDS011;1482;51.398;7.128;2023-02-01T02:12:41;37.90;;;7.57;;
2944;SDS011;1482;51.398;7.128;2023-02-01T02:15:09;20.40;;;7.13;;
2944;SDS011;1482;51.398;7.128;2023-02-01T02:17:46;16.00;;;7.10;;
2944;SDS011;1482;51.398;7.128;2023-02-01T02:26:11;21.27;;;5.33;;
2944;SDS011;1482;51.398;7.128;2023-02-01T02:36:50;15.03;;;5.97;;
2944;SDS011;1482;51.398;7.128;2023-02-01T02:42:14;21.03;;;5.30;;
2944;SDS011;1482;51.398;7.128;2023-02-01T02:51:11;29.67;;;6.57;;
2944;SDS011;1482;51.398;7.128;2023-02-01T02:56:51;13.20;;;4.13;;
2944;SDS011;1482;51.398;7.128;2023-02-01T02:59:39;24.60;;;6.60;;
2944;SDS011;1482;51.398;7.128;2023-02-01T03:06:00;21.57;;;7.10;;
2944;SDS011;1482;51.398;7.128;2023-02-01T03:08:27;12.80;;;5.00;;
2944;SDS011;1482;51.398;7.128;2023-02-01T03:16:19;23.77;;;6.43;;
2944;SDS011;1482;51.398;7.128;2023-02-01T03:21:35;21.10;;;5.57;;
2944;SDS011;1482;51.398;7.128;2023-02-01T03:24:16;22.77;;;5.20;;
2944;SDS011;1482;51.398;7.128;2023-02-01T03:26:58;20.67;;;6.00;;
2944;SDS011;1482;51.398;7.128;2023-02-01T03:29:40;13.23;;;4.43;;
2944;SDS011;1482;51.398;7.128;2023-02-01T03:32:14;19.47;;;6.20;;
2944;SDS011;1482;51.398;7.128;2023-02-01T03:34:39;16.00;;;5.23;;
2944;SDS011;1482;51.398;7.128;2023-02-01T03:37:06;21.37;;;5.60;;
2944;SDS011;1482;51.398;7.128;2023-02-01T03:42:56;29.57;;;5.13;;
2944;SDS011;1482;51.398;7.128;2023-02-01T03:47:46;19.40;;;5.13;;
2944;SDS011;1482;51.398;7.128;2023-02-01T03:50:15;13.20;;;4.87;;
2944;SDS011;1482;51.398;7.128;2023-02-01T03:52:44;22.50;;;4.60;;
2944;SDS011;1482;51.398;7.128;2023-02-01T03:55:18;18.30;;;4.50;;
2944;SDS011;1482;51.398;7.128;2023-02-01T03:57:51;22.43;;;5.77;;
2944;SDS011;1482;51.398;7.128;2023-02-01T04:00:24;19.43;;;5.63;;
2944;SDS011;1482;51.398;7.128;2023-02-01T04:02:51;20.63;;;3.87;;
2944;SDS011;1482;51.398;7.128;2023-02-01T04:05:17;19.17;;;4.90;;
2944;SDS011;1482;51.398;7.128;2023-02-01T04:07:42;18.40;;;5.07;;
2944;SDS011;1482;51.398;7.128;2023-02-01T04:10:08;17.77;;;5.27;;
2944;SDS011;1482;51.398;7.128;2023-02-01T04:12:35;14.30;;;4.10;;
2944;SDS011;1482;51.398;7.128;2023-02-01T04:15:00;24.43;;;5.80;;
2944;SDS011;1482;51.398;7.128;2023-02-01T04:17:26;21.10;;;4.53;;
2944;SDS011;1482;51.398;7.128;2023-02-01T04:19:52;10.10;;;4.03;;
2944;SDS011;1482;51.398;7.128;2023-02-01T04:22:17;24.23;;;6.37;;
2944;SDS011;1482;51.398;7.128;2023-02-01T04:24:43;13.30;;;4.83;;
2944;SDS011;1482;51.398;7.128;2023-02-01T04:27:08;17.63;;;4.87;;
2944;SDS011;1482;51.398;7.128;2023-02-01T04:29:34;15.87;;;5.20;;
2944;SDS011;1482;51.398;7.128;2023-02-01T04:31:59;13.30;;;5.20;;
2944;SDS011;1482;51.398;7.128;2023-02-01T04:34:25;15.17;;;4.80;;
2944;SDS011;1482;51.398;7.128;2023-02-01T04:36:51;13.27;;;4.53;;
2944;SDS011;1482;51.398;7.128;2023-02-01T04:39:17;17.30;;;5.23;;
2944;SDS011;1482;51.398;7.128;2023-02-01T04:41:42;24.50;;;4.90;;
2944;SDS011;1482;51.398;7.128;2023-02-01T04:44:15;13.10;;;4.70;;
2944;SDS011;1482;51.398;7.128;2023-02-01T04:46:42;25.93;;;5.10;;
2944;SDS011;1482;51.398;7.128;2023-02-01T04:49:11;30.27;;;5.60;;
2944;SDS011;1482;51.398;7.128;2023-02-01T04:51:37;17.70;;;4.80;;
2944;SDS011;1482;51.398;7.128;2023-02-01T04:54:04;19.37;;;5.57;;
2944;SDS011;1482;51.398;7.128;2023-02-01T04:56:29;15.90;;;4.67;;
2944;SDS011;1482;51.398;7.128;2023-02-01T04:58:55;18.07;;;6.20;;
2944;SDS011;1482;51.398;7.128;2023-02-01T05:01:21;15.07;;;5.07;;
2944;SDS011;1482;51.398;7.128;2023-02-01T05:03:47;18.90;;;4.93;;
2944;SDS011;1482;51.398;7.128;2023-02-01T05:06:13;22.10;;;4.80;;
2944;SDS011;1482;51.398;7.128;2023-02-01T05:08:38;15.07;;;5.87;;
2944;SDS011;1482;51.398;7.128;2023-02-01T05:11:04;19.40;;;7.00;;
2944;SDS011;1482;51.398;7.128;2023-02-01T05:13:30;23.60;;;5.77;;
2944;SDS011;1482;51.398;7.128;2023-02-01T05:16:14;18.70;;;5.80;;
2944;SDS011;1482;51.398;7.128;2023-02-01T05:18:40;15.53;;;5.27;;
2944;SDS011;1482;51.398;7.128;2023-02-01T05:21:06;17.10;;;5.80;;
2944;SDS011;1482;51.398;7.128;2023-02-01T05:23:32;11.57;;;5.13;;
2944;SDS011;1482;51.398;7.128;2023-02-01T05:26:17;14.70;;;4.60;;
2944;SDS011;1482;51.398;7.128;2023-02-01T05:28:43;18.20;;;5.30;;
2944;SDS011;1482;51.398;7.128;2023-02-01T05:31:11;17.77;;;5.60;;
2944;SDS011;1482;51.398;7.128;2023-02-01T05:33:37;20.17;;;4.63;;
2944;SDS011;1482;51.398;7.128;2023-02-01T05:36:02;20.30;;;5.97;;
2944;SDS011;1482;51.398;7.128;2023-02-01T05:38:28;30.43;;;7.23;;
2944;SDS011;1482;51.398;7.128;2023-02-01T05:40:56;15.97;;;4.53;;
2944;SDS011;1482;51.398;7.128;2023-02-01T05:43:22;15.83;;;4.40;;
2944;SDS011;1482;51.398;7.128;2023-02-01T05:45:48;15.40;;;5.03;;
2944;SDS011;1482;51.398;7.128;2023-02-01T05:48:13;13.43;;;5.20;;
2944;SDS011;1482;51.398;7.128;2023-02-01T05:50:39;19.87;;;5.77;;
2944;SDS011;1482;51.398;7.128;2023-02-01T05:53:04;23.63;;;4.70;;
2944;SDS011;1482;51.398;7.128;2023-02-01T05:55:30;16.87;;;5.83;;
2944;SDS011;1482;51.398;7.128;2023-02-01T05:57:56;11.17;;;5.30;;
2944;SDS011;1482;51.398;7.128;2023-02-01T06:00:22;19.93;;;5.50;;
2944;SDS011;1482;51.398;7.128;2023-02-01T06:02:48;28.90;;;5.77;;
2944;SDS011;1482;51.398;7.128;2023-02-01T06:05:13;18.63;;;5.43;;
2944;SDS011;1482;51.398;7.128;2023-02-01T06:07:39;24.07;;;5.87;;
2944;SDS011;1482;51.398;7.128;2023-02-01T06:10:05;24.43;;;5.60;;
2944;SDS011;1482;51.398;7.128;2023-02-01T06:12:31;19.03;;;5.00;;
2944;SDS011;1482;51.398;7.128;2023-02-01T06:14:57;22.83;;;6.37;;
2944;SDS011;1482;51.398;7.128;2023-02-01T06:17:23;22.37;;;4.60;;
2944;SDS011;1482;51.398;7.128;2023-02-01T06:19:49;19.77;;;5.40;;
2944;SDS011;1482;51.398;7.128;2023-02-01T06:22:14;22.00;;;6.50;;
2944;SDS011;1482;51.398;7.128;2023-02-01T06:24:40;19.13;;;5.87;;
2944;SDS011;1482;51.398;7.128;2023-02-01T06:27:06;26.60;;;5.60;;
2944;SDS011;1482;51.398;7.128;2023-02-01T06:29:31;24.67;;;6.73;;
2944;SDS011;1482;51.398;7.128;2023-02-01T06:31:57;10.87;;;5.23;;
2944;SDS011;1482;51.398;7.128;2023-02-01T06:34:24;25.17;;;5.80;;
2944;SDS011;1482;51.398;7.128;2023-02-01T06:36:50;24.47;;;4.73;;
2944;SDS011;1482;51.398;7.128;2023-02-01T06:39:15;16.60;;;4.83;;
2944;SDS011;1482;51.398;7.128;2023-02-01T06:41:42;26.30;;;5.50;;
2944;SDS011;1482;51.398;7.128;2023-02-01T06:44:11;19.30;;;5.20;;
2944;SDS011;1482;51.398;7.128;2023-02-01T06:46:36;25.40;;;5.37;;
2944;SDS011;1482;51.398;7.128;2023-02-01T06:49:02;16.70;;;3.97;;
2944;SDS011;1482;51.398;7.128;2023-02-01T06:51:27;19.83;;;5.63;;
2944;SDS011;1482;51.398;7.128;2023-02-01T06:53:54;21.93;;;5.70;;
2944;SDS011;1482;51.398;7.128;2023-02-01T06:56:20;14.07;;;5.90;;
2944;SDS011;1482;51.398;7.128;2023-02-01T06:58:46;17.20;;;5.80;;
2944;SDS011;1482;51.398;7.128;2023-02-01T07:01:12;23.80;;;6.33;;
2944;SDS011;1482;51.398;7.128;2023-02-01T07:03:39;19.10;;;4.80;;
2944;SDS011;1482;51.398;7.128;2023-02-01T07:06:05;21.60;;;5.30;;
2944;SDS011;1482;51.398;7.128;2023-02-01T07:08:32;21.47;;;5.77;;
2944;SDS011;1482;51.398;7.128;2023-02-01T07:11:06;23.10;;;6.43;;
2944;SDS011;1482;51.398;7.128;2023-02-01T07:13:34;22.53;;;6.60;;
2944;SDS011;1482;51.398;7.128;2023-02-01T07:16:00;12.77;;;4.23;;
2944;SDS011;1482;51.398;7.128;2023-02-01T07:18:28;19.70;;;5.73;;
2944;SDS011;1482;51.398;7.128;2023-02-01T07:20:54;20.57;;;6.57;;
2944;SDS011;1482;51.398;7.128;2023-02-01T07:23:20;27.63;;;7.13;;
2944;SDS011;1482;51.398;7.128;2023-02-01T07:25:45;29.47;;;5.73;;
2944;SDS011;1482;51.398;7.128;2023-02-01T07:28:11;17.57;;;6.80;;
2944;SDS011;1482;51.398;7.128;2023-02-01T07:30:37;26.73;;;6.10;;
2944;SDS011;1482;51.398;7.128;2023-02-01T07:33:03;23.30;;;4.90;;
2944;SDS011;1482;51.398;7.128;2023-02-01T07:35:28;24.13;;;5.87;;
2944;SDS011;1482;51.398;7.128;2023-02-01T07:37:54;22.50;;;7.60;;
2944;SDS011;1482;51.398;7.128;2023-02-01T07:40:23;36.10;;;4.80;;
2944;SDS011;1482;51.398;7.128;2023-02-01T07:42:53;20.97;;;5.73;;
2944;SDS011;1482;51.398;7.128;2023-02-01T07:45:20;30.83;;;5.00;;
2944;SDS011;1482;51.398;7.128;2023-02-01T07:47:46;18.43;;;5.90;;
2944;SDS011;1482;51.398;7.128;2023-02-01T07:50:12;22.13;;;4.90;;
2944;SDS011;1482;51.398;7.128;2023-02-01T07:52:37;19.03;;;5.23;;
2944;SDS011;1482;51.398;7.128;2023-02-01T07:55:05;16.10;;;4.80;;
2944;SDS011;1482;51.398;7.128;2023-02-01T07:57:31;18.00;;;5.30;;
2944;SDS011;1482;51.398;7.128;2023-02-01T07:59:56;20.97;;;4.67;;
2944;SDS011;1482;51.398;7.128;2023-02-01T08:02:40;21.37;;;4.97;;
2944;SDS011;1482;51.398;7.128;2023-02-01T08:05:06;16.90;;;5.20;;
2944;SDS011;1482;51.398;7.128;2023-02-01T08:07:32;19.63;;;5.70;;
2944;SDS011;1482;51.398;7.128;2023-02-01T08:09:57;17.50;;;6.67;;
2944;SDS011;1482;51.398;7.128;2023-02-01T08:12:23;28.53;;;7.93;;
2944;SDS011;1482;51.398;7.128;2023-02-01T08:14:49;21.40;;;6.20;;
2944;SDS011;1482;51.398;7.128;2023-02-01T08:17:14;10.57;;;5.40;;
2944;SDS011;1482;51.398;7.128;2023-02-01T08:19:40;15.40;;;5.30;;
2944;SDS011;1482;51.398;7.128;2023-02-01T08:22:05;24.50;;;5.97;;
2944;SDS011;1482;51.398;7.128;2023-02-01T08:24:32;22.77;;;6.70;;
2944;SDS011;1482;51.398;7.128;2023-02-01T08:27:00;18.33;;;5.80;;
2944;SDS011;1482;51.398;7.128;2023-02-01T08:29:26;13.73;;;5.50;;
2944;SDS011;1482;51.398;7.128;2023-02-01T08:31:52;21.50;;;5.53;;
2944;SDS011;1482;51.398;7.128;2023-02-01T08:34:19;21.53;;;7.90;;
2944;SDS011;1482;51.398;7.128;2023-02-01T08:36:45;15.93;;;5.93;;
2944;SDS011;1482;51.398;7.128;2023-02-01T08:39:10;28.07;;;5.50;;
2944;SDS011;1482;51.398;7.128;2023-02-01T08:41:37;19.63;;;5.90;;
2944;SDS011;1482;51.398;7.128;2023-02-01T08:44:03;28.33;;;6.47;;
2944;SDS011;1482;51.398;7.128;2023-02-01T08:46:28;25.37;;;6.73;;
2944;SDS011;1482;51.398;7.128;2023-02-01T08:48:54;19.73;;;6.03;;
2944;SDS011;1482;51.398;7.128;2023-02-01T08:51:21;23.93;;;6.20;;
2944;SDS011;1482;51.398;7.128;2023-02-01T08:53:47;29.67;;;7.33;;
2944;SDS011;1482;51.398;7.128;2023-02-01T08:56:14;18.70;;;6.07;;
2944;SDS011;1482;51.398;7.128;2023-02-01T08:58:41;15.17;;;5.13;;
2944;SDS011;1482;51.398;7.128;2023-02-01T09:01:07;14.67;;;6.33;;
2944;SDS011;1482;51.398;7.128;2023-02-01T09:03:38;24.37;;;6.30;;
2944;SDS011;1482;51.398;7.128;2023-02-01T09:06:05;26.27;;;7.00;;
2944;SDS011;1482;51.398;7.128;2023-02-01T09:08:32;17.20;;;6.30;;
2944;SDS011;1482;51.398;7.128;2023-02-01T09:11:02;24.63;;;7.90;;
2944;SDS011;1482;51.398;7.128;2023-02-01T09:13:30;19.93;;;6.80;;
2944;SDS011;1482;51.398;7.128;2023-02-01T09:15:55;23.63;;;6.20;;
2944;SDS011;1482;51.398;7.128;2023-02-01T09:18:21;19.17;;;6.07;;
2944;SDS011;1482;51.398;7.128;2023-02-01T09:20:47;12.87;;;6.70;;
2944;SDS011;1482;51.398;7.128;2023-02-01T09:23:13;20.97;;;6.97;;
2944;SDS011;1482;51.398;7.128;2023-02-01T09:25:39;29.27;;;7.47;;
2944;SDS011;1482;51.398;7.128;2023-02-01T09:28:05;24.53;;;6.60;;
2944;SDS011;1482;51.398;7.128;2023-02-01T09:30:31;15.80;;;5.70;;
2944;SDS011;1482;51.398;7.128;2023-02-01T09:32:58;25.23;;;6.90;;
2944;SDS011;1482;51.398;7.128;2023-02-01T09:35:23;38.47;;;8.20;;
2944;SDS011;1482;51.398;7.128;2023-02-01T09:37:49;18.33;;;5.30;;
2944;SDS011;1482;51.398;7.128;2023-02-01T09:40:17;28.90;;;6.70;;
2944;SDS011;1482;51.398;7.128;2023-02-01T09:43:00;21.17;;;6.00;;
2944;SDS011;1482;51.398;7.128;2023-02-01T09:48:40;13.17;;;5.90;;
2944;SDS011;1482;51.398;7.128;2023-02-01T09:51:12;15.13;;;6.60;;
2944;SDS011;1482;51.398;7.128;2023-02-01T09:53:43;22.00;;;7.40;;
2944;SDS011;1482;51.398;7.128;2023-02-01T09:56:12;24.07;;;6.27;;
2944;SDS011;1482;51.398;7.128;2023-02-01T09:58:55;28.20;;;7.53;;
2944;SDS011;1482;51.398;7.128;2023-02-01T10:01:41;18.73;;;8.10;;
2944;SDS011;1482;51.398;7.128;2023-02-01T10:04:09;21.10;;;6.53;;
2944;SDS011;1482;51.398;7.128;2023-02-01T10:06:56;11.63;;;6.10;;
2944;SDS011;1482;51.398;7.128;2023-02-01T10:09:50;21.17;;;6.00;;
2944;SDS011;1482;51.398;7.128;2023-02-01T10:23:36;25.07;;;7.07;;
2944;SDS011;1482;51.398;7.128;2023-02-01T10:26:26;14.20;;;5.00;;
2944;SDS011;1482;51.398;7.128;2023-02-01T10:28:59;21.10;;;6.70;;
2944;SDS011;1482;51.398;7.128;2023-02-01T10:31:28;17.83;;;5.03;;
2944;SDS011;1482;51.398;7.128;2023-02-01T10:34:00;27.50;;;7.27;;
2944;SDS011;1482;51.398;7.128;2023-02-01T10:36:41;17.93;;;5.33;;
2944;SDS011;1482;51.398;7.128;2023-02-01T10:39:14;13.37;;;5.40;;
2944;SDS011;1482;51.398;7.128;2023-02-01T10:41:40;17.30;;;5.53;;
2944;SDS011;1482;51.398;7.128;2023-02-01T10:44:10;14.53;;;5.33;;
2944;SDS011;1482;51.398;7.128;2023-02-01T10:46:42;17.70;;;6.63;;
2944;SDS011;1482;51.398;7.128;2023-02-01T10:49:13;23.13;;;6.53;;
2944;SDS011;1482;51.398;7.128;2023-02-01T10:54:32;19.60;;;6.73;;
2944;SDS011;1482;51.398;7.128;2023-02-01T10:56:59;19.93;;;5.70;;
2944;SDS011;1482;51.398;7.128;2023-02-01T10:59:28;20.47;;;7.80;;
2944;SDS011;1482;51.398;7.128;2023-02-01T11:02:01;14.00;;;6.57;;
2944;SDS011;1482;51.398;7.128;2023-02-01T11:04:40;22.63;;;5.20;;
2944;SDS011;1482;51.398;7.128;2023-02-01T11:07:07;24.77;;;7.53;;
2944;SDS011;1482;51.398;7.128;2023-02-01T11:09:41;25.93;;;10.77;;
2944;SDS011;1482;51.398;7.128;2023-02-01T11:12:31;19.83;;;8.43;;
2944;SDS011;1482;51.398;7.128;2023-02-01T11:17:43;20.30;;;7.20;;
2944;SDS011;1482;51.398;7.128;2023-02-01T11:20:16;23.30;;;7.30;;
2944;SDS011;1482;51.398;7.128;2023-02-01T11:23:02;28.03;;;6.63;;
2944;SDS011;1482;51.398;7.128;2023-02-01T11:25:28;17.57;;;6.43;;
2944;SDS011;1482;51.398;7.128;2023-02-01T11:27:55;20.03;;;5.43;;
2944;SDS011;1482;51.398;7.128;2023-02-01T11:30:28;24.23;;;8.87;;
2944;SDS011;1482;51.398;7.128;2023-02-01T11:32:57;16.30;;;5.77;;
2944;SDS011;1482;51.398;7.128;2023-02-01T11:35:24;20.97;;;6.77;;
2944;SDS011;1482;51.398;7.128;2023-02-01T11:37:54;28.63;;;8.00;;
2944;SDS011;1482;51.398;7.128;2023-02-01T11:40:56;29.93;;;7.87;;
2944;SDS011;1482;51.398;7.128;2023-02-01T11:45:52;23.43;;;6.73;;
2944;SDS011;1482;51.398;7.128;2023-02-01T11:48:24;21.47;;;7.90;;
2944;SDS011;1482;51.398;7.128;2023-02-01T11:56:29;18.67;;;6.80;;
2944;SDS011;1482;51.398;7.128;2023-02-01T12:02:19;14.07;;;5.50;;
2944;SDS011;1482;51.398;7.128;2023-02-01T12:05:12;24.60;;;6.30;;
2944;SDS011;1482;51.398;7.128;2023-02-01T12:16:11;12.73;;;5.70;;
2944;SDS011;1482;51.398;7.128;2023-02-01T12:21:32;13.03;;;6.00;;
2944;SDS011;1482;51.398;7.128;2023-02-01T12:41:14;11.23;;;4.57;;
2944;SDS011;1482;51.398;7.128;2023-02-01T12:47:03;15.77;;;4.07;;
2944;SDS011;1482;51.398;7.128;2023-02-01T12:49:38;10.53;;;4.60;;
2944;SDS011;1482;51.398;7.128;2023-02-01T12:52:35;28.97;;;7.30;;
2944;SDS011;1482;51.398;7.128;2023-02-01T12:55:22;23.57;;;5.43;;
2944;SDS011;1482;51.398;7.128;2023-02-01T12:57:52;14.87;;;5.43;;
2944;SDS011;1482;51.398;7.128;2023-02-01T13:00:30;42.77;;;8.10;;
2944;SDS011;1482;51.398;7.128;2023-02-01T13:05:55;17.60;;;4.00;;
2944;SDS011;1482;51.398;7.128;2023-02-01T13:11:42;14.13;;;4.60;;
2944;SDS011;1482;51.398;7.128;2023-02-01T13:14:22;22.17;;;5.20;;
2944;SDS011;1482;51.398;7.128;2023-02-01T13:17:02;9.10;;;3.97;;
2944;SDS011;1482;51.398;7.128;2023-02-01T13:22:21;10.30;;;4.30;;
2944;SDS011;1482;51.398;7.128;2023-02-01T13:24:58;20.60;;;5.47;;
2944;SDS011;1482;51.398;7.128;2023-02-01T13:27:27;16.97;;;5.03;;
2944;SDS011;1482;51.398;7.128;2023-02-01T13:30:01;16.93;;;4.77;;
2944;SDS011;1482;51.398;7.128;2023-02-01T13:35:39;10.57;;;3.90;;
2944;SDS011;1482;51.398;7.128;2023-02-01T13:38:15;29.10;;;6.27;;
2944;SDS011;1482;51.398;7.128;2023-02-01T13:40:51;28.07;;;5.67;;
2944;SDS011;1482;51.398;7.128;2023-02-01T13:43:24;18.23;;;4.53;;
2944;SDS011;1482;51.398;7.128;2023-02-01T13:45:53;13.87;;;5.40;;
2944;SDS011;1482;51.398;7.128;2023-02-01T13:48:27;17.27;;;3.90;;
2944;SDS011;1482;51.398;7.128;2023-02-01T13:50:57;21.23;;;5.63;;
2944;SDS011;1482;51.398;7.128;2023-02-01T13:53:29;12.77;;;3.60;;
2944;SDS011;1482;51.398;7.128;2023-02-01T13:56:03;11.17;;;4.30;;
2944;SDS011;1482;51.398;7.128;2023-02-01T13:58:36;23.83;;;4.73;;
2944;SDS011;1482;51.398;7.128;2023-02-01T14:01:31;17.07;;;4.03;;
2944;SDS011;1482;51.398;7.128;2023-02-01T14:03:59;12.60;;;3.37;;
2944;SDS011;1482;51.398;7.128;2023-02-01T14:11:36;15.30;;;3.53;;
2944;SDS011;1482;51.398;7.128;2023-02-01T14:17:30;17.53;;;4.07;;
2944;SDS011;1482;51.398;7.128;2023-02-01T14:19:36;16.33;;;4.50;;
2944;SDS011;1482;51.398;7.128;2023-02-01T14:24:39;19.53;;;3.70;;
2944;SDS011;1482;51.398;7.128;2023-02-01T14:29:38;10.10;;;3.63;;
2944;SDS011;1482;51.398;7.128;2023-02-01T14:32:15;12.00;;;3.47;;
2944;SDS011;1482;51.398;7.128;2023-02-01T14:37:23;17.10;;;3.73;;
2944;SDS011;1482;51.398;7.128;2023-02-01T14:39:56;18.10;;;3.67;;
2944;SDS011;1482;51.398;7.128;2023-02-01T14:57:58;12.23;;;3.03;;
2944;SDS011;1482;51.398;7.128;2023-02-01T15:00:30;14.97;;;3.70;;
2944;SDS011;1482;51.398;7.128;2023-02-01T15:05:54;10.03;;;3.00;;
2944;SDS011;1482;51.398;7.128;2023-02-01T15:08:25;11.47;;;4.70;;
2944;SDS011;1482;51.398;7.128;2023-02-01T15:10:55;10.10;;;2.70;;
2944;SDS011;1482;51.398;7.128;2023-02-01T15:13:26;19.83;;;3.90;;
2944;SDS011;1482;51.398;7.128;2023-02-01T15:16:14;8.33;;;3.60;;
2944;SDS011;1482;51.398;7.128;2023-02-01T15:18:39;15.70;;;4.67;;
2944;SDS011;1482;51.398;7.128;2023-02-01T15:21:06;21.77;;;4.77;;
2944;SDS011;1482;51.398;7.128;2023-02-01T15:23:40;12.03;;;4.93;;
2944;SDS011;1482;51.398;7.128;2023-02-01T15:26:06;19.57;;;4.37;;
2944;SDS011;1482;51.398;7.128;2023-02-01T15:28:32;17.83;;;6.00;;
2944;SDS011;1482;51.398;7.128;2023-02-01T15:30:59;12.50;;;5.30;;
2944;SDS011;1482;51.398;7.128;2023-02-01T15:33:27;17.33;;;4.60;;
2944;SDS011;1482;51.398;7.128;2023-02-01T15:35:54;22.00;;;4.53;;
2944;SDS011;1482;51.398;7.128;2023-02-01T15:38:37;11.80;;;4.27;;
2944;SDS011;1482;51.398;7.128;2023-02-01T15:41:09;16.90;;;4.30;;
2944;SDS011;1482;51.398;7.128;2023-02-01T15:46:36;13.87;;;4.13;;
2944;SDS011;1482;51.398;7.128;2023-02-01T15:51:53;6.80;;;3.40;;
2944;SDS011;1482;51.398;7.128;2023-02-01T15:54:28;13.87;;;3.67;;
2944;SDS011;1482;51.398;7.128;2023-02-01T15:57:02;16.73;;;4.17;;
2944;SDS011;1482;51.398;7.128;2023-02-01T15:59:41;18.00;;;3.97;;
2944;SDS011;1482;51.398;7.128;2023-02-01T16:02:25;15.60;;;3.97;;
2944;SDS011;1482;51.398;7.128;2023-02-01T16:04:58;17.57;;;4.30;;
2944;SDS011;1482;51.398;7.128;2023-02-01T16:07:25;15.03;;;8.60;;
2944;SDS011;1482;51.398;7.128;2023-02-01T16:09:54;11.13;;;4.07;;
2944;SDS011;1482;51.398;7.128;2023-02-01T16:14:57;20.17;;;4.40;;
2944;SDS011;1482;51.398;7.128;2023-02-01T16:17:22;23.40;;;4.70;;
2944;SDS011;1482;51.398;7.128;2023-02-01T16:19:48;19.80;;;5.67;;
2944;SDS011;1482;51.398;7.128;2023-02-01T16:22:13;18.23;;;4.90;;
2944;SDS011;1482;51.398;7.128;2023-02-01T16:24:39;16.80;;;4.77;;
2944;SDS011;1482;51.398;7.128;2023-02-01T16:27:04;9.30;;;4.10;;
2944;SDS011;1482;51.398;7.128;2023-02-01T16:29:32;21.13;;;5.27;;
2944;SDS011;1482;51.398;7.128;2023-02-01T16:31:58;16.47;;;4.00;;
2944;SDS011;1482;51.398;7.128;2023-02-01T16:34:23;18.00;;;4.37;;
2944;SDS011;1482;51.398;7.128;2023-02-01T16:36:49;25.77;;;5.67;;
2944;SDS011;1482;51.398;7.128;2023-02-01T16:39:17;24.97;;;5.97;;
2944;SDS011;1482;51.398;7.128;2023-02-01T16:41:43;20.40;;;5.40;;
2944;SDS011;1482;51.398;7.128;2023-02-01T16:44:10;27.83;;;5.90;;
2944;SDS011;1482;51.398;7.128;2023-02-01T16:46:38;14.03;;;5.73;;
2944;SDS011;1482;51.398;7.128;2023-02-01T16:49:05;17.80;;;5.00;;
2944;SDS011;1482;51.398;7.128;2023-02-01T16:51:41;21.63;;;4.57;;
2944;SDS011;1482;51.398;7.128;2023-02-01T16:54:07;19.13;;;4.87;;
2944;SDS011;1482;51.398;7.128;2023-02-01T16:56:33;13.97;;;7.07;;
2944;SDS011;1482;51.398;7.128;2023-02-01T16:59:00;26.23;;;6.53;;
2944;SDS011;1482;51.398;7.128;2023-02-01T17:01:26;17.50;;;5.17;;
2944;SDS011;1482;51.398;7.128;2023-02-01T17:03:51;25.47;;;6.17;;
2944;SDS011;1482;51.398;7.128;2023-02-01T17:06:21;16.13;;;6.97;;
2944;SDS011;1482;51.398;7.128;2023-02-01T17:08:52;21.43;;;6.17;;
2944;SDS011;1482;51.398;7.128;2023-02-01T17:11:20;26.80;;;7.57;;
2944;SDS011;1482;51.398;7.128;2023-02-01T17:13:46;31.70;;;6.67;;
2944;SDS011;1482;51.398;7.128;2023-02-01T17:18:43;27.63;;;7.60;;
2944;SDS011;1482;51.398;7.128;2023-02-01T17:21:12;13.97;;;7.40;;
2944;SDS011;1482;51.398;7.128;2023-02-01T17:23:38;19.30;;;7.90;;
2944;SDS011;1482;51.398;7.128;2023-02-01T17:26:03;18.67;;;5.27;;
2944;SDS011;1482;51.398;7.128;2023-02-01T17:28:29;14.13;;;4.80;;
2944;SDS011;1482;51.398;7.128;2023-02-01T17:30:55;21.90;;;5.33;;
2944;SDS011;1482;51.398;7.128;2023-02-01T17:33:22;19.43;;;6.07;;
2944;SDS011;1482;51.398;7.128;2023-02-01T17:35:51;10.10;;;4.30;;
2944;SDS011;1482;51.398;7.128;2023-02-01T17:38:19;18.70;;;3.80;;
2944;SDS011;1482;51.398;7.128;2023-02-01T17:40:53;12.90;;;3.83;;
2944;SDS011;1482;51.398;7.128;2023-02-01T17:43:20;15.93;;;4.53;;
2944;SDS011;1482;51.398;7.128;2023-02-01T17:45:49;20.00;;;6.17;;
2944;SDS011;1482;51.398;7.128;2023-02-01T17:48:19;21.20;;;5.87;;
2944;SDS011;1482;51.398;7.128;2023-02-01T17:50:46;16.53;;;6.63;;
2944;SDS011;1482;51.398;7.128;2023-02-01T17:53:18;36.17;;;6.70;;
2944;SDS011;1482;51.398;7.128;2023-02-01T17:55:48;13.30;;;6.03;;
2944;SDS011;1482;51.398;7.128;2023-02-01T17:58:14;29.30;;;5.20;;